Terminal Aerodrome Forecast
Issued by NWS

Home | Current Version | Previous Version | Text Only | Print | Product List | Glossary On
Versions: 1 2 3 4 5 6 7 8 9 10 11 12 13 14 15 16 17 18 19 20 21 22 23 24 25 26 27 28 29 30 31 32 33 34 35 36 37 38 39
000
FTAK31 PANC 221821 AAA
TAFACD
TAF AMD
PACD 221821Z 2218/2318 13014G24KT P6SM VCSH SCT010 BKN025 OVC035
      TEMPO 2218/2222 5SM -RA BR SCT008 BKN018
     FM222300 13017G22KT P6SM VCSH BKN015 OVC030
     FM230900 12015G24KT 5SM -RA BR OVC010=

USA.gov is the U.S. government's official web portal to all federal, state and local government web resources and services.